EW2149 Weather Reports


time (UTC)temp
C
wind
direction
speed
KPH
gust
KPH
rain 1hr
cm
rain 24hr
cm
rain mn
cm
humidity
%
barometer
mb
20190424174017 10 180 14.5 43.5 0.05 0.36 0.36 86 1003.1
20190424173017 10 157 27.4 46.7 0.20 0.36 0.36 86 1002.9
20190424165016 12 202 17.7 37.0 0.33 0.33 0.33 85 1002.2
20190424163016 15 157 19.3 43.5 0.15 0.15 0.15 67 1002.7
20190424162019 20 202 33.8 51.5 0.03 0.03 0.03 59 1000.9
20190424160016 20 180 3.2 11.3 0.00 0.00 0.00 52 999.3
20190424155016 20 202 0.0 8.0 0.00 0.00 0.00 53 999.3
20190424154016 21 202 6.4 11.3 0.00 0.00 0.00 51 999.5
20190424153015 21 0 0.0 4.8 0.00 0.00 0.00 49 999.7
20190424144019 21 247 11.3 20.9 0.00 0.00 0.00 49 999.9
20190424142019 21 180 4.8 17.7 0.00 0.00 0.00 47 1000.3
20190424140019 22 135 20.9 25.7 0.00 0.00 0.00 46 1000.3
20190424133034 22 157 14.5 24.1 0.00 0.00 0.00 45 1000.4
20190424132018 22 157 12.9 20.9 0.00 0.00 0.00 46 1000.5
20190424131026 22 180 9.7 17.7 0.00 0.00 0.00 45 1000.5
20190424130018 22 157 4.8 17.7 0.00 0.00 0.00 47 1000.5
20190424125018 22 225 3.2 16.1 0.00 0.00 0.00 48 1000.6
20190424124018 22 180 14.5 24.1 0.00 0.00 0.00 46 1000.8
20190424122018 22 180 9.7 35.4 0.00 0.00 0.00 48 1001.0
20190424121017 22 202 3.2 19.3 0.00 0.00 0.00 46 1001.0
20190424120017 21 202 12.9 22.5 0.00 0.00 0.00 47 1001.0
20190424115017 21 135 17.7 32.2 0.00 0.00 0.00 46 1001.1
20190424110016 21 157 11.3 38.6 0.00 0.00 0.00 48 1001.5
20190424105016 21 135 17.7 29.0 0.00 0.00 0.00 48 1001.6
20190424104016 21 112 17.7 29.0 0.00 0.00 0.00 47 1001.6
20190424103016 21 202 24.1 32.2 0.00 0.00 0.00 46 1001.5
20190424101015 20 180 11.3 38.6 0.00 0.00 0.00 50 1001.6
20190424100015 20 202 20.9 35.4 0.00 0.00 0.00 49 1001.6
20190424095015 20 157 27.4 37.0 0.00 0.00 0.00 49 1001.6
20190424091015 20 157 17.7 32.2 0.00 0.00 0.00 54 1001.6
20190424090019 20 135 20.9 35.4 0.00 0.00 0.00 56 1001.5
20190424085019 19 202 16.1 29.0 0.00 0.00 0.00 56 1001.6
20190424084019 19 180 20.9 29.0 0.00 0.00 0.00 56 1001.5
20190424082019 18 157 16.1 22.5 0.00 0.00 0.00 61 1001.5
20190424081019 18 157 17.7 29.0 0.00 0.00 0.00 63 1001.5
20190424080019 17 157 9.7 24.1 0.00 0.00 0.00 65 1001.5
20190424075018 17 180 3.2 25.7 0.00 0.00 0.00 65 1001.4
20190424074018 16 157 12.9 24.1 0.00 0.00 0.00 67 1001.3
20190424073018 15 135 4.8 11.3 0.00 0.00 0.00 69 1001.1
20190424072018 15 180 11.3 17.7 0.00 0.00 0.00 68 1001.0
20190424070018 14 135 6.4 17.7 0.00 0.00 0.00 70 1000.7
20190424065017 14 157 3.2 6.4 0.00 0.00 0.00 72 1000.5
20190424063017 13 135 4.8 9.7 0.00 0.00 0.00 72 1000.7
20190424061111 13 0 0.0 0.0 0.00 0.00 0.00 73 1000.6
20190424060017 12 0 0.0 8.0 0.00 0.00 0.00 73 1000.4
20190424055017 12 157 3.2 11.3 0.00 0.00 0.00 75 1000.5
20190424054016 11 157 4.8 9.7 0.00 0.00 0.00 77 1000.4
20190424052016 15 0 0.0 0.0 0.00 0.00 0.00 66 998.4
20190424045016 11 0 0.0 0.0 0.00 0.00 0.00 77 999.7
20190424044018 11 0 0.0 0.0 0.00 0.00 0.00 76 999.7
20190424043015 11 0 0.0 0.0 0.00 0.00 0.00 76 999.6
20190424042016 11 0 0.0 0.0 0.00 0.00 0.00 76 999.6
20190424041015 11 0 0.0 0.0 0.00 0.00 0.00 77 999.5
20190424040015 11 157 1.6 4.8 0.00 0.00 0.00 78 999.4
20190424032014 10 0 0.0 0.0 0.00 0.00 0.00 79 999.4
20190424025019 10 0 0.0 0.0 0.00 0.00 0.00 78 999.3
20190424021019 10 0 0.0 0.0 0.00 0.00 0.00 75 999.1
20190424020018 10 0 0.0 0.0 0.00 0.00 0.00 75 999.1
20190424015018 11 0 0.0 0.0 0.00 0.00 0.00 75 999.0
20190424014018 11 0 0.0 0.0 0.00 0.00 0.00 74 999.0
20190424010017 12 0 0.0 0.0 0.00 0.00 0.00 69 998.7
20190424005017 13 0 0.0 0.0 0.00 0.00 0.00 69 998.8
20190424004017 13 0 0.0 0.0 0.00 0.00 0.00 68 998.7
20190424003017 13 0 0.0 0.0 0.00 0.00 0.00 67 998.7
20190424000016 14 157 3.2 8.0 0.00 0.00 0.00 66 998.6
20190423235016 13 157 1.6 8.0 0.00 0.00 0.00 66 998.6
20190423234016 13 157 1.6 9.7 0.00 0.00 0.00 67 998.6
20190423232016 13 157 1.6 11.3 0.00 0.00 0.00 68 998.5
20190423231018 13 0 0.0 0.0 0.00 0.00 0.00 68 998.4
20190423230015 14 0 0.0 0.0 0.00 0.00 0.00 68 998.3
20190423224015 14 0 0.0 0.0 0.00 0.00 0.00 67 998.3
20190423223015 14 0 0.0 4.8 0.00 0.00 0.00 67 998.4
20190423222015 14 157 0.0 3.2 0.00 0.00 0.00 66 998.5
20190423221015 15 0 0.0 0.0 0.00 0.00 0.00 66 998.5
20190423220014 15 0 0.0 0.0 0.00 0.00 0.00 66 998.5
20190423215014 15 0 0.0 0.0 0.00 0.00 0.00 66 998.4
20190423214014 15 157 0.0 4.8 0.00 0.00 0.00 65 998.4
20190423211014 15 157 1.6 8.0 0.00 0.00 0.00 65 998.3
20190423210014 15 0 0.0 0.0 0.00 0.00 0.00 64 998.3
20190423205013 15 0 0.0 0.0 0.00 0.00 0.00 63 998.2
20190423203018 15 157 1.6 8.0 0.00 0.00 0.00 62 998.1
20190423202018 15 157 3.2 9.7 0.00 0.00 0.00 62 998.2
20190423194018 16 135 1.6 14.5 0.00 0.00 0.00 60 998.0
20190423193017 16 112 1.6 9.7 0.00 0.00 0.00 60 997.9
20190423185017 16 112 4.8 11.3 0.00 0.00 0.00 57 997.7
20190423182016 17 112 6.4 11.3 0.00 0.00 0.00 56 997.6